Hlavní strana
METAR-TAF:

METAR-TAF

Letiště :

Mombasa, Keňa

zeměpisná šířka: 04-02S, zeměpisná délka: 039-37E, výška: 57 m

Aktuální stav počasí

Zpráva byla vytvořena před 1 hodinou a 5 minutami, v 03:00 UTC
Bezvětří
Teplota 24°C
Vlhkost vzduchu 94%
Tlak 1013 hPa
Viditelnost 10 km a více
Skoro jasno ve výšce 1900 ft

METAR: HKMO 210300Z 00000KT 9999 FEW019 24/23 Q1013 NOSIG

Čas: 07:05 (04:05 UTC)

Předpověď počasí

Zpráva byla vytvořena před 5 hodinami a 5 minutami, v 23:00 UTC
Předpověď platná od 21 v 00 UTC do 22 v 06 UTC
Severoseverozápadní vítr 5 kt
Viditelnost 10 km a více
Skoro jasno ve výšce 2000 ft
Změna
od 21 v 09 UTC do 21 v 12 UTC
Východní vítr 15 kt
Skoro jasno ve výšce 2700 ft
Změna
od 21 v 18 UTC do 21 v 21 UTC
Severovýchodní vítr 10 kt
Skoro jasno ve výšce 2300 ft
Změna
od 22 v 00 UTC do 22 v 06 UTC
Severní vítr 5 kt
Polojasno ve výšce 2000 ft

TAF: HKMO 202300Z 2100/2206 34005KT 9999 FEW020 BECMG 2109/2112 08015KT FEW027 BECMG 2118/2121 04010KT FEW023 BECMG 2200/2206 35005KT SCT020

Stav a předpovědi počasí z více než 4 000 letišť (zprávy METAR a TAF).

Červené a žluté tečky na mapě představují dostupné meteorologické stanice.

Když kurzor umístíte na tečku, zobrazí se název stanice.

Pak kliknutím zobrazíte stav a předpověď počasí.

Chcete-li změnit mapu, kliknutím na zelené tlačítko se znaménkem +mapu přiblížíte, kliknutím na zelené tlačítko se znaménkem – mapu oddálíte a kliknutím na zelené šipky přejdete na sousední mapy.


METAR-TAF: